createdAt,value
2023-05-10T00:00:21.598Z,99626.31
2023-05-10T00:02:48.433Z,99615.13
2023-05-10T00:05:17.598Z,99620.38
2023-05-10T00:07:45.878Z,99619.59
2023-05-10T00:10:12.961Z,99620.50
2023-05-10T00:12:39.575Z,99616.25
2023-05-10T00:15:07.077Z,99622.34
2023-05-10T00:17:33.883Z,99625.84
2023-05-10T00:20:00.489Z,99625.88
2023-05-10T00:22:27.197Z,99624.19
2023-05-10T00:24:53.727Z,99628.59
2023-05-10T00:27:20.319Z,99626.00
2023-05-10T00:29:46.809Z,99631.22
2023-05-10T00:32:15.046Z,99629.53
2023-05-10T00:34:41.805Z,99623.53
2023-05-10T00:37:08.439Z,99624.47
2023-05-10T00:39:35.030Z,99627.97
2023-05-10T00:42:01.728Z,99629.69
2023-05-10T00:44:28.596Z,99632.34
2023-05-10T00:46:55.290Z,99638.41
2023-05-10T00:49:22.224Z,99645.31
2023-05-10T00:51:49.456Z,99635.88
2023-05-10T00:54:16.949Z,99636.75
2023-05-10T00:56:49.435Z,99631.59
2023-05-10T00:59:18.154Z,99635.88
2023-05-10T01:01:47.113Z,99634.19
2023-05-10T01:04:15.581Z,99629.91
2023-05-10T01:06:43.091Z,99641.16
2023-05-10T01:09:10.651Z,99636.84
2023-05-10T01:11:39.324Z,99640.31
2023-05-10T01:14:06.844Z,99641.19
2023-05-10T01:16:37.826Z,99639.47
2023-05-10T01:19:10.741Z,99635.19
2023-05-10T01:21:47.739Z,99633.50
2023-05-10T01:33:14.854Z,99640.38
2023-05-10T01:35:46.788Z,99640.38
2023-05-10T01:44:11.632Z,99638.78
2023-05-10T01:46:39.798Z,99638.78
2023-05-10T01:49:12.701Z,99640.50
2023-05-10T01:51:46.011Z,99645.72
2023-05-10T01:54:14.548Z,99642.28
2023-05-10T01:56:43.138Z,99643.19
2023-05-10T01:59:18.001Z,99640.59
2023-05-10T02:01:46.777Z,99650.09
2023-05-10T02:04:16.896Z,99644.91
2023-05-10T02:06:44.202Z,99643.31
2023-05-10T02:09:13.049Z,99645.88
2023-05-10T02:11:40.731Z,99652.75
2023-05-10T02:14:10.630Z,99647.59
2023-05-10T02:16:39.104Z,99648.47
2023-05-10T02:19:06.982Z,99645.06
2023-05-10T02:21:34.630Z,99651.09
2023-05-10T02:24:03.794Z,99653.69
2023-05-10T02:26:31.303Z,99659.72
2023-05-10T02:28:59.666Z,99666.66
2023-05-10T02:31:27.380Z,99662.34
2023-05-10T02:33:55.194Z,99669.25
2023-05-10T02:36:23.846Z,99660.66
2023-05-10T02:38:52.804Z,99671.88
2023-05-10T02:41:22.438Z,99669.31
2023-05-10T02:43:52.332Z,99674.47
2023-05-10T02:46:19.547Z,99670.19
2023-05-10T02:48:46.327Z,99673.66
2023-05-10T02:51:18.620Z,99662.44
2023-05-10T02:53:48.013Z,99675.41
2023-05-10T02:56:21.839Z,99673.66
2023-05-10T02:58:48.454Z,99665.09
2023-05-10T03:01:15.189Z,99664.25
2023-05-10T03:03:41.764Z,99667.69
2023-05-10T03:06:08.474Z,99664.25
2023-05-10T03:08:35.115Z,99665.13
2023-05-10T03:11:25.448Z,99671.16
2023-05-10T03:14:08.872Z,99675.47
2023-05-10T03:16:47.937Z,99674.63
2023-05-10T03:19:23.988Z,99673.75
2023-05-10T03:21:54.124Z,99675.50
2023-05-10T03:24:22.601Z,99673.78
2023-05-10T03:26:51.153Z,99675.50
2023-05-10T03:29:18.613Z,99677.19
2023-05-10T03:31:45.594Z,99673.78
2023-05-10T03:34:12.295Z,99674.66
2023-05-10T03:36:38.923Z,99669.47
2023-05-10T03:39:05.473Z,99666.91
2023-05-10T03:41:32.116Z,99677.22
2023-05-10T03:43:58.725Z,99668.63
2023-05-10T03:46:25.294Z,99667.75
2023-05-10T03:48:51.826Z,99672.94
2023-05-10T03:51:18.482Z,99673.78
2023-05-10T03:53:44.991Z,99671.22
2023-05-10T03:56:11.555Z,99673.78
2023-05-10T03:58:38.065Z,99668.63
2023-05-10T04:01:04.722Z,99672.06
2023-05-10T04:03:31.429Z,99670.38
2023-05-10T04:06:02.687Z,99681.56
2023-05-10T04:08:30.031Z,99678.97
2023-05-10T04:11:07.111Z,99676.41
2023-05-10T04:13:33.857Z,99681.56
2023-05-10T04:16:00.656Z,99671.22
2023-05-10T04:18:27.217Z,99685.81
2023-05-10T04:20:53.825Z,99676.38
2023-05-10T04:23:20.352Z,99692.72
2023-05-10T04:25:46.960Z,99684.97
2023-05-10T04:28:13.510Z,99688.38
2023-05-10T04:30:41.473Z,99688.41
2023-05-10T04:33:08.286Z,99690.13
2023-05-10T04:35:36.037Z,99685.00
2023-05-10T04:38:02.558Z,99690.97
2023-05-10T04:40:29.142Z,99689.25
2023-05-10T04:42:55.707Z,99694.47
2023-05-10T04:45:22.386Z,99695.31
2023-05-10T04:47:48.964Z,99691.88
2023-05-10T04:50:15.711Z,99697.06
2023-05-10T04:52:42.551Z,99697.88
2023-05-10T04:55:10.628Z,99697.88
2023-05-10T04:57:37.238Z,99702.22
2023-05-10T05:00:04.129Z,99709.09
2023-05-10T05:02:31.808Z,99707.34
2023-05-10T05:04:58.984Z,99709.94
2023-05-10T05:07:25.658Z,99709.94
2023-05-10T05:09:52.230Z,99717.69
2023-05-10T05:12:18.730Z,99716.81
2023-05-10T05:14:45.507Z,99720.28
2023-05-10T05:17:12.092Z,99722.88
2023-05-10T05:19:38.799Z,99726.28
2023-05-10T05:22:07.734Z,99728.00
2023-05-10T05:24:39.263Z,99728.84
2023-05-10T05:27:06.734Z,99731.41
2023-05-10T05:29:33.396Z,99731.41
2023-05-10T05:32:00.215Z,99740.88
2023-05-10T05:34:27.031Z,99733.97
2023-05-10T05:36:53.570Z,99733.09
2023-05-10T05:39:20.168Z,99737.34
2023-05-10T05:41:47.641Z,99742.47
2023-05-10T05:44:14.235Z,99742.41
2023-05-10T05:46:40.791Z,99750.09
2023-05-10T05:49:07.326Z,99754.31
2023-05-10T05:51:33.862Z,99756.78
2023-05-10T05:54:00.375Z,99756.69
2023-05-10T05:56:26.923Z,99753.97
2023-05-10T05:58:53.517Z,99758.13
2023-05-10T06:01:20.241Z,99764.88
2023-05-10T06:03:46.922Z,99759.50
2023-05-10T06:06:13.664Z,99762.84
2023-05-10T06:08:40.270Z,99766.22
2023-05-10T06:11:06.807Z,99767.13
2023-05-10T06:13:34.389Z,99771.50
2023-05-10T06:16:01.221Z,99766.34
2023-05-10T06:18:27.890Z,99774.13
2023-05-10T06:20:54.468Z,99770.53
2023-05-10T06:23:21.015Z,99776.28
2023-05-10T06:25:47.589Z,99777.66
2023-05-10T06:28:14.130Z,99783.25
2023-05-10T06:30:40.709Z,99786.25
2023-05-10T06:33:07.293Z,99781.44
2023-05-10T06:35:34.535Z,99788.75
2023-05-10T06:38:01.179Z,99790.03
2023-05-10T06:40:27.781Z,99790.28
2023-05-10T06:42:54.315Z,99800.97
2023-05-10T06:45:21.170Z,99795.97
2023-05-10T06:47:47.935Z,99802.19
2023-05-10T06:50:14.806Z,99795.25
2023-05-10T06:52:41.422Z,99799.66
2023-05-10T06:55:09.425Z,99793.66
2023-05-10T06:57:36.153Z,99800.63
2023-05-10T07:00:05.206Z,99800.63
2023-05-10T07:02:32.393Z,99806.50
2023-05-10T07:05:01.663Z,99795.16
2023-05-10T07:07:29.885Z,99795.94
2023-05-10T07:09:57.603Z,99802.03
2023-05-10T07:12:24.974Z,99795.31
2023-05-10T07:14:51.538Z,99800.91
2023-05-10T07:17:18.482Z,99801.13
2023-05-10T07:19:45.706Z,99804.00
2023-05-10T07:22:12.859Z,99801.69
2023-05-10T07:24:39.634Z,99811.25
2023-05-10T07:27:06.612Z,99805.09
2023-05-10T07:29:34.420Z,99808.78
2023-05-10T07:32:03.565Z,99802.28
2023-05-10T07:34:31.730Z,99807.50
2023-05-10T07:37:01.106Z,99810.00
2023-05-10T07:39:28.611Z,99803.66
2023-05-10T07:41:56.376Z,99806.22
2023-05-10T07:44:23.579Z,99804.53
2023-05-10T07:46:51.570Z,99795.56
2023-05-10T07:49:18.139Z,99796.38
2023-05-10T07:51:45.149Z,99795.16
2023-05-10T07:54:11.815Z,99797.50
2023-05-10T07:56:38.363Z,99797.97
2023-05-10T07:59:07.385Z,99797.44
2023-05-10T08:01:36.614Z,99798.78
2023-05-10T08:04:04.650Z,99801.78
2023-05-10T08:06:31.479Z,99804.94
2023-05-10T08:08:58.520Z,99804.69
2023-05-10T08:11:25.332Z,99795.69
2023-05-10T08:13:52.362Z,99803.50
2023-05-10T08:16:19.297Z,99800.69
2023-05-10T08:18:48.013Z,99804.25
2023-05-10T08:21:15.548Z,99797.53
2023-05-10T08:23:42.465Z,99806.47
2023-05-10T08:26:09.213Z,99805.44
2023-05-10T08:28:36.145Z,99810.41
2023-05-10T08:31:02.776Z,99814.53
2023-05-10T08:33:29.390Z,99809.06
2023-05-10T08:35:55.988Z,99818.53
2023-05-10T08:38:22.591Z,99816.28
2023-05-10T08:40:50.366Z,99812.50
2023-05-10T08:43:17.024Z,99817.88
2023-05-10T08:45:48.092Z,99812.88
2023-05-10T08:48:16.098Z,99817.06
2023-05-10T08:50:44.035Z,99815.44
2023-05-10T08:53:12.439Z,99818.25
2023-05-10T08:55:41.446Z,99817.63
2023-05-10T08:58:08.557Z,99817.63
2023-05-10T09:00:36.116Z,99810.13
2023-05-10T09:03:05.118Z,99819.22
2023-05-10T09:05:32.222Z,99810.44
2023-05-10T09:07:59.768Z,99813.28
2023-05-10T09:10:28.241Z,99823.69
2023-05-10T09:12:59.422Z,99816.25
2023-05-10T09:15:26.511Z,99821.25
2023-05-10T09:17:53.549Z,99815.22
2023-05-10T09:20:20.258Z,99822.44
2023-05-10T09:22:47.015Z,99821.59
2023-05-10T09:25:16.149Z,99820.72
2023-05-10T09:27:46.315Z,99819.34
2023-05-10T09:30:18.602Z,99823.28
2023-05-10T09:32:48.196Z,99820.13
2023-05-10T09:35:19.501Z,99827.41
2023-05-10T09:37:49.922Z,99820.00
2023-05-10T09:40:19.156Z,99822.84
2023-05-10T09:45:32.233Z,99814.97
2023-05-10T09:48:00.265Z,99815.81
2023-05-10T09:50:28.637Z,99815.00
2023-05-10T09:53:00.152Z,99818.06
2023-05-10T09:55:40.855Z,99816.28
2023-05-10T09:58:11.381Z,99814.38
2023-05-10T10:00:40.757Z,99811.38
2023-05-10T10:03:12.897Z,99825.88
2023-05-10T10:05:42.278Z,99820.16
2023-05-10T10:08:09.003Z,99818.34
2023-05-10T10:10:36.051Z,99812.69
2023-05-10T10:13:03.165Z,99825.06
2023-05-10T10:15:29.750Z,99821.94
2023-05-10T10:17:56.632Z,99826.00
2023-05-10T10:20:25.572Z,99818.41
2023-05-10T10:22:53.532Z,99818.13
2023-05-10T10:25:23.402Z,99826.69
2023-05-10T10:30:52.528Z,99834.50
2023-05-10T10:35:59.862Z,99828.34
2023-05-10T10:38:26.488Z,99828.63
2023-05-10T10:41:28.690Z,99820.56
2023-05-10T10:44:35.143Z,99820.44
2023-05-10T10:52:30.175Z,99817.44
2023-05-10T11:05:37.560Z,99821.50
2023-05-10T11:08:11.286Z,99821.97
2023-05-10T11:10:38.542Z,99810.19
2023-05-10T11:13:09.850Z,99806.75
2023-05-10T11:15:41.019Z,99811.84
2023-05-10T11:18:28.555Z,99807.78
2023-05-10T11:21:01.025Z,99808.41
2023-05-10T11:23:34.183Z,99804.94
2023-05-10T11:26:02.483Z,99807.88
2023-05-10T11:28:29.465Z,99804.13
2023-05-10T11:30:56.933Z,99802.91
2023-05-10T11:33:23.599Z,99797.75
2023-05-10T11:35:50.146Z,99799.75
2023-05-10T11:38:17.188Z,99799.81
2023-05-10T11:40:45.505Z,99799.19
2023-05-10T11:43:12.369Z,99794.81
2023-05-10T11:45:41.060Z,99794.22
2023-05-10T11:48:08.707Z,99798.09
2023-05-10T11:50:35.701Z,99786.41
2023-05-10T11:53:02.415Z,99785.06
2023-05-10T11:55:31.212Z,99785.41
2023-05-10T11:58:02.088Z,99779.22
2023-05-10T12:00:29.145Z,99783.56
2023-05-10T12:02:55.853Z,99776.84
2023-05-10T12:05:22.947Z,99786.16
2023-05-10T12:07:49.516Z,99784.06
2023-05-10T12:10:18.459Z,99784.81
2023-05-10T12:12:48.492Z,99783.81
2023-05-10T12:17:52.448Z,99790.47
2023-05-10T12:20:22.681Z,99790.06
2023-05-10T12:22:53.477Z,99787.91
2023-05-10T12:25:22.438Z,99779.75
2023-05-10T12:27:54.378Z,99786.22
2023-05-10T12:30:24.314Z,99781.03
2023-05-10T12:32:51.621Z,99774.13
2023-05-10T12:35:21.477Z,99781.69
2023-05-10T12:37:48.378Z,99774.47
2023-05-10T12:40:15.489Z,99782.66
2023-05-10T12:42:42.662Z,99788.22
2023-05-10T12:45:09.873Z,99783.28
2023-05-10T12:47:37.150Z,99787.75
2023-05-10T12:50:04.261Z,99782.31
2023-05-10T12:52:33.218Z,99777.19
2023-05-10T12:55:01.462Z,99780.53
2023-05-10T12:57:28.626Z,99780.09
2023-05-10T12:59:56.102Z,99781.03
2023-05-10T13:02:24.299Z,99777.03
2023-05-10T13:04:51.726Z,99776.50
2023-05-10T13:07:18.361Z,99778.22
2023-05-10T13:09:45.065Z,99774.47
2023-05-10T13:12:11.660Z,99782.13
2023-05-10T13:14:38.377Z,99792.09
2023-05-10T13:17:05.022Z,99787.75
2023-05-10T13:19:31.702Z,99786.38
2023-05-10T13:21:58.970Z,99788.25
2023-05-10T13:24:25.658Z,99791.06
2023-05-10T13:26:52.450Z,99790.91
2023-05-10T13:29:19.183Z,99789.28
2023-05-10T13:31:46.033Z,99782.13
2023-05-10T13:34:12.647Z,99784.78
2023-05-10T13:36:39.251Z,99775.75
2023-05-10T13:39:06.376Z,99772.00
2023-05-10T13:41:33.189Z,99776.16
2023-05-10T13:43:59.721Z,99778.34
2023-05-10T13:46:26.546Z,99771.88
2023-05-10T13:48:53.030Z,99782.28
2023-05-10T13:51:19.546Z,99780.75
2023-05-10T13:53:47.968Z,99774.09
2023-05-10T13:56:15.048Z,99773.94
2023-05-10T13:58:42.721Z,99778.72
2023-05-10T14:01:09.343Z,99782.31
2023-05-10T14:03:36.188Z,99769.88
2023-05-10T14:06:04.152Z,99776.25
2023-05-10T14:08:33.353Z,99771.91
2023-05-10T14:11:00.483Z,99767.66
2023-05-10T14:13:27.067Z,99769.69
2023-05-10T14:15:54.851Z,99761.69
2023-05-10T14:18:22.709Z,99759.47
2023-05-10T14:20:50.057Z,99763.84
2023-05-10T14:23:16.690Z,99763.47
2023-05-10T14:25:43.944Z,99762.72
2023-05-10T14:28:10.802Z,99760.53
2023-05-10T14:30:37.820Z,99757.22
2023-05-10T14:33:04.464Z,99769.44
2023-05-10T14:35:33.128Z,99765.22
2023-05-10T14:37:59.814Z,99769.19
2023-05-10T14:40:27.062Z,99762.88
2023-05-10T14:42:54.062Z,99767.66
2023-05-10T14:45:21.992Z,99763.09
2023-05-10T14:47:48.575Z,99771.94
2023-05-10T14:50:28.206Z,99766.50
2023-05-10T14:53:01.982Z,99767.09
2023-05-10T14:55:28.575Z,99772.94
2023-05-10T14:57:55.458Z,99781.97
2023-05-10T15:00:22.171Z,99777.88
2023-05-10T15:02:49.474Z,99775.69
2023-05-10T15:05:17.083Z,99779.56
2023-05-10T15:07:44.768Z,99774.47
2023-05-10T15:10:12.322Z,99769.34
2023-05-10T15:12:39.369Z,99775.50
2023-05-10T15:15:07.254Z,99768.97
2023-05-10T15:17:34.324Z,99764.56
2023-05-10T15:20:03.106Z,99759.09
2023-05-10T15:22:31.044Z,99757.78
2023-05-10T15:24:59.961Z,99771.47
2023-05-10T15:27:27.042Z,99779.84
2023-05-10T15:29:54.149Z,99784.97
2023-05-10T15:32:23.588Z,99795.78
2023-05-10T15:34:50.148Z,99798.06
2023-05-10T15:37:16.860Z,99800.06
2023-05-10T15:39:43.520Z,99801.94
2023-05-10T15:42:10.411Z,99809.00
2023-05-10T15:44:39.371Z,99823.78
2023-05-10T15:47:06.950Z,99818.41
2023-05-10T15:49:35.126Z,99826.91
2023-05-10T15:52:02.017Z,99829.19
2023-05-10T15:54:28.604Z,99830.66
2023-05-10T15:56:55.645Z,99838.25
2023-05-10T15:59:22.412Z,99838.75
2023-05-10T16:01:50.015Z,99837.69
2023-05-10T16:04:16.864Z,99834.78
2023-05-10T16:06:43.433Z,99834.28
2023-05-10T16:09:10.747Z,99828.59
2023-05-10T16:11:37.616Z,99827.22
2023-05-10T16:14:05.285Z,99824.13
2023-05-10T16:16:33.498Z,99825.25
2023-05-10T16:19:01.465Z,99833.34
2023-05-10T16:21:29.964Z,99830.94
2023-05-10T16:23:56.617Z,99831.19
2023-05-10T16:26:23.338Z,99829.63
2023-05-10T16:28:49.868Z,99827.16
2023-05-10T16:31:18.366Z,99822.00
2023-05-10T16:33:45.134Z,99827.25
2023-05-10T16:36:11.830Z,99825.66
2023-05-10T16:38:38.402Z,99822.94
2023-05-10T16:41:05.531Z,99822.84
2023-05-10T16:43:33.289Z,99818.47
2023-05-10T16:45:59.910Z,99814.84
2023-05-10T16:48:26.977Z,99819.88
2023-05-10T16:50:53.691Z,99822.50
2023-05-10T16:53:23.200Z,99823.28
2023-05-10T16:55:51.337Z,99832.06
2023-05-10T16:58:17.857Z,99830.44
2023-05-10T17:00:44.456Z,99823.66
2023-05-10T17:03:11.642Z,99823.94
2023-05-10T17:05:38.259Z,99825.75
2023-05-10T17:08:04.936Z,99826.59
2023-05-10T17:10:31.607Z,99827.44
2023-05-10T17:12:58.335Z,99825.75
2023-05-10T17:15:25.184Z,99829.38
2023-05-10T17:17:51.957Z,99839.84
2023-05-10T17:20:18.592Z,99831.06
2023-05-10T17:22:45.526Z,99826.72
2023-05-10T17:25:12.151Z,99821.31
2023-05-10T17:27:39.158Z,99835.88
2023-05-10T17:30:06.754Z,99836.56
2023-05-10T17:32:34.325Z,99840.72
2023-05-10T17:35:01.057Z,99843.97
2023-05-10T17:37:27.831Z,99845.72
2023-05-10T17:39:55.308Z,99845.72
2023-05-10T17:42:22.078Z,99835.47
2023-05-10T17:44:49.854Z,99841.66
2023-05-10T17:47:18.291Z,99833.88
2023-05-10T17:49:45.496Z,99835.59
2023-05-10T17:52:12.107Z,99833.88
2023-05-10T17:54:39.571Z,99836.59
2023-05-10T17:57:06.922Z,99836.69
2023-05-10T17:59:34.371Z,99841.13
2023-05-10T18:02:02.792Z,99844.66
2023-05-10T18:04:29.530Z,99843.88
2023-05-10T18:07:02.068Z,99838.69
2023-05-10T18:09:29.327Z,99841.25
2023-05-10T18:11:56.023Z,99847.38
2023-05-10T18:14:39.117Z,99844.88
2023-05-10T18:17:07.931Z,99850.22
2023-05-10T18:19:34.818Z,99852.94
2023-05-10T18:22:01.556Z,99851.38
2023-05-10T18:24:38.994Z,99854.94
2023-05-10T18:27:09.137Z,99852.44
2023-05-10T18:29:37.060Z,99848.94
2023-05-10T18:32:03.811Z,99849.97
2023-05-10T18:34:30.447Z,99843.13
2023-05-10T18:36:57.112Z,99846.75
2023-05-10T18:39:24.385Z,99845.19
2023-05-10T18:41:51.153Z,99855.00
2023-05-10T18:44:20.928Z,99850.72
2023-05-10T18:46:47.534Z,99848.06
2023-05-10T18:49:15.913Z,99853.72
2023-05-10T18:51:42.795Z,99852.00
2023-05-10T18:54:10.078Z,99857.28
2023-05-10T18:56:37.284Z,99855.56
2023-05-10T18:59:04.046Z,99855.66
2023-05-10T19:01:30.925Z,99867.13
2023-05-10T19:03:57.668Z,99868.19
2023-05-10T19:06:24.413Z,99862.31
2023-05-10T19:08:51.172Z,99874.66
2023-05-10T19:11:17.794Z,99874.75
2023-05-10T19:13:45.444Z,99875.69
2023-05-10T19:16:14.559Z,99874.84
2023-05-10T19:18:41.356Z,99876.59
2023-05-10T19:21:10.940Z,99880.94
2023-05-10T19:23:41.751Z,99882.72
2023-05-10T19:26:09.973Z,99879.31
2023-05-10T19:28:37.022Z,99878.53
2023-05-10T19:31:04.906Z,99889.97
2023-05-10T19:33:32.629Z,99881.38
2023-05-10T19:35:59.213Z,99886.69
2023-05-10T19:38:26.220Z,99888.50
2023-05-10T19:40:58.095Z,99885.06
2023-05-10T19:43:26.963Z,99891.25
2023-05-10T19:45:53.902Z,99895.78
2023-05-10T19:48:20.637Z,99895.00
2023-05-10T19:50:47.218Z,99899.50
2023-05-10T19:53:13.802Z,99899.69
2023-05-10T19:55:40.401Z,99903.31
2023-05-10T19:58:07.699Z,99898.28
2023-05-10T20:00:34.390Z,99907.16
2023-05-10T20:03:02.326Z,99905.63
2023-05-10T20:05:29.556Z,99907.56
2023-05-10T20:07:56.095Z,99912.91
2023-05-10T20:10:24.298Z,99914.81
2023-05-10T20:12:53.084Z,99916.66
2023-05-10T20:15:22.230Z,99921.94
2023-05-10T20:17:52.224Z,99922.06
2023-05-10T20:20:20.304Z,99923.00
2023-05-10T20:22:48.457Z,99920.44
2023-05-10T20:25:16.007Z,99930.94
2023-05-10T20:27:43.314Z,99929.31
2023-05-10T20:30:10.827Z,99927.66
2023-05-10T20:32:38.324Z,99926.03
2023-05-10T20:35:06.001Z,99927.00
2023-05-10T20:37:33.021Z,99929.75
2023-05-10T20:40:00.195Z,99928.06
2023-05-10T20:42:27.136Z,99926.50
2023-05-10T20:44:53.788Z,99926.59
2023-05-10T20:47:21.035Z,99929.31
2023-05-10T20:49:50.545Z,99934.66
2023-05-10T20:52:17.534Z,99939.06
2023-05-10T20:54:44.265Z,99938.28
2023-05-10T20:57:12.887Z,99936.66
2023-05-10T20:59:39.542Z,99938.44
2023-05-10T21:02:06.252Z,99939.34
2023-05-10T21:04:32.992Z,99938.50
2023-05-10T21:06:59.832Z,99939.41
2023-05-10T21:09:26.546Z,99934.25
2023-05-10T21:11:53.690Z,99944.66
2023-05-10T21:14:21.142Z,99936.88
2023-05-10T21:16:47.911Z,99936.03
2023-05-10T21:19:14.648Z,99939.53
2023-05-10T21:21:42.109Z,99943.91
2023-05-10T21:24:08.738Z,99943.94
2023-05-10T21:26:35.390Z,99943.09
2023-05-10T21:29:02.698Z,99941.34
2023-05-10T21:31:30.085Z,99940.50
2023-05-10T21:33:59.839Z,99941.34
2023-05-10T21:36:27.101Z,99941.38
2023-05-10T21:38:53.949Z,99946.63
2023-05-10T21:41:20.551Z,99937.09
2023-05-10T21:43:48.379Z,99945.81
2023-05-10T21:46:15.914Z,99941.56
2023-05-10T21:48:42.777Z,99933.75
2023-05-10T21:51:10.050Z,99936.41
2023-05-10T21:53:39.119Z,99934.75
2023-05-10T21:56:07.735Z,99943.50
2023-05-10T21:58:34.956Z,99936.59
2023-05-10T22:01:02.133Z,99933.13
2023-05-10T22:03:29.128Z,99934.94
2023-05-10T22:05:55.762Z,99933.19
2023-05-10T22:08:22.639Z,99934.97
2023-05-10T22:10:49.853Z,99932.41
2023-05-10T22:13:16.526Z,99935.03
2023-05-10T22:15:44.377Z,99933.31
2023-05-10T22:18:11.227Z,99933.38
2023-05-10T22:20:38.390Z,99925.59
2023-05-10T22:23:05.009Z,99930.81
2023-05-10T22:25:31.721Z,99927.34
2023-05-10T22:27:58.314Z,99931.72
2023-05-10T22:30:24.924Z,99930.00
2023-05-10T22:32:51.689Z,99923.06
2023-05-10T22:35:19.076Z,99921.34
2023-05-10T22:37:45.729Z,99927.50
2023-05-10T22:40:13.003Z,99924.06
2023-05-10T22:42:39.534Z,99927.56
2023-05-10T22:45:07.365Z,99926.75
2023-05-10T22:47:34.766Z,99931.09
2023-05-10T22:50:03.594Z,99928.53
2023-05-10T22:52:30.511Z,99928.56
2023-05-10T22:54:57.251Z,99933.78
2023-05-10T22:57:24.494Z,99935.59
2023-05-10T22:59:51.051Z,99931.28
2023-05-10T23:02:17.775Z,99934.75
2023-05-10T23:04:48.044Z,99937.41
2023-05-10T23:07:14.732Z,99935.75
2023-05-10T23:09:41.361Z,99937.50
2023-05-10T23:12:07.874Z,99932.34
2023-05-10T23:14:34.630Z,99930.63
2023-05-10T23:17:01.624Z,99932.44
2023-05-10T23:19:29.496Z,99935.91
2023-05-10T23:21:56.307Z,99934.19
2023-05-10T23:24:22.949Z,99935.97
2023-05-10T23:26:49.584Z,99942.03
2023-05-10T23:29:16.614Z,99941.22
2023-05-10T23:31:45.971Z,99942.09
2023-05-10T23:34:12.780Z,99941.25
2023-05-10T23:36:39.620Z,99945.63
2023-05-10T23:39:06.835Z,99941.31
2023-05-10T23:41:33.468Z,99944.84
2023-05-10T23:44:01.702Z,99943.13
2023-05-10T23:46:28.878Z,99940.56
2023-05-10T23:48:55.491Z,99939.72
2023-05-10T23:51:22.162Z,99946.69
2023-05-10T23:53:48.944Z,99945.84
2023-05-10T23:56:16.259Z,99947.66
2023-05-10T23:58:42.888Z,99958.97
